Time;durP1;ratioP1;P1;durP2;ratioP2;P2;SDS_P1;SDS_P2;PMS_P1;PMS_P2;Temp;Humidity;BMP_temperature;BMP_pressure;BME280_temperature;BME280_humidity;BME280_pressure;Samples;Min_cycle;Max_cycle;Signal;HPM_P1;HPM_P2
2021/05/24 14:35:00;;;;;;;8.05;2.83;;;;;;;30.02;29.29;100064.06;5109492;27;20899;-72
2021/05/24 14:37:26;;;;;;;9.40;2.72;;;;;;;30.35;29.18;100089.81;5089628;28;20025;-72
2021/05/24 14:39:51;;;;;;;9.73;2.13;;;;;;;30.58;29.12;100091.00;5089779;28;20029;-72
2021/05/24 14:42:17;;;;;;;5.97;1.98;;;;;;;30.72;28.63;100092.00;5091567;28;20054;-70
2021/05/24 14:44:42;;;;;;;9.10;2.50;;;;;;;30.67;29.90;100095.59;5081946;28;20074;-70
2021/05/24 14:47:08;;;;;;;10.80;2.58;;;;;;;30.76;29.36;100093.06;5077110;28;20029;-71
2021/05/24 14:49:34;;;;;;;7.60;2.80;;;;;;;30.61;29.92;100088.56;5081810;28;20044;-72
2021/05/24 14:52:00;;;;;;;9.80;2.45;;;;;;;30.56;28.92;100079.56;5076918;28;20032;-72
2021/05/24 14:54:26;;;;;;;8.95;2.00;;;;;;;30.72;29.31;100086.53;5088889;28;20059;-72
2021/05/24 14:56:51;;;;;;;9.88;2.20;;;;;;;30.49;28.74;100093.53;5090616;28;20363;-72
2021/05/24 14:59:17;;;;;;;8.15;2.78;;;;;;;30.17;29.90;100092.13;5080560;28;20029;-71
2021/05/24 15:01:42;;;;;;;9.07;2.42;;;;;;;30.13;29.91;100082.84;5075520;28;20028;-72
2021/05/24 15:04:08;;;;;;;7.72;2.28;;;;;;;30.24;31.24;100085.53;5086345;28;20044;-72
2021/05/24 15:06:34;;;;;;;10.98;2.08;;;;;;;30.40;29.65;100078.84;5083255;28;20333;-72
2021/05/24 15:09:00;;;;;;;9.50;2.28;;;;;;;30.31;30.18;100078.66;5081279;28;20028;-70
2021/05/24 15:11:25;;;;;;;11.68;2.38;;;;;;;30.33;30.14;100087.38;5078035;28;20036;-70
2021/05/24 15:13:50;;;;;;;9.52;2.65;;;;;;;30.11;30.04;100097.88;5084754;28;20076;-71
2021/05/24 15:16:16;;;;;;;7.35;2.10;;;;;;;29.93;29.38;100082.94;5090985;28;20043;-70
2021/05/24 15:18:41;;;;;;;9.38;2.00;;;;;;;30.34;29.23;100099.94;5082721;28;20218;-70
2021/05/24 15:21:07;;;;;;;9.07;2.00;;;;;;;30.42;29.47;100101.25;5095921;28;20297;-70
2021/05/24 15:23:33;;;;;;;9.48;2.20;;;;;;;30.31;30.17;100105.97;5083418;28;20207;-70
2021/05/24 15:25:58;;;;;;;8.75;1.95;;;;;;;30.24;29.82;100105.47;5097750;28;20020;-71
2021/05/24 15:28:26;;;;;;;4.30;1.92;;;;;;;30.13;30.53;100109.31;5097145;28;20081;-71
2021/05/24 15:30:54;;;;;;;7.70;1.95;;;;;;;29.98;29.81;100098.47;5097550;28;20024;-71
2021/05/24 15:33:20;;;;;;;9.45;1.92;;;;;;;29.96;30.40;100106.13;5097062;28;20052;-71
2021/05/24 15:35:46;;;;;;;7.30;2.45;;;;;;;30.01;31.28;100106.94;5094912;28;20043;-71
2021/05/24 15:38:17;;;;;;;5.82;2.08;;;;;;;29.83;31.85;100111.09;5078506;28;20037;-71
2021/05/24 15:40:44;;;;;;;6.15;2.08;;;;;;;29.64;31.69;100112.00;5081585;28;20059;-71
2021/05/24 15:43:10;;;;;;;7.07;2.10;;;;;;;29.53;31.37;100112.03;5096019;28;20069;-71
2021/05/24 15:45:37;;;;;;;13.85;2.35;;;;;;;29.60;31.89;100106.28;5085080;28;21282;-71
2021/05/24 15:48:03;;;;;;;6.32;2.10;;;;;;;29.58;33.60;100115.84;5079579;28;20033;-71
2021/05/24 15:50:29;;;;;;;12.73;3.15;;;;;;;29.63;33.97;100113.91;5063488;28;20305;-71
2021/05/24 15:52:55;;;;;;;4.32;1.95;;;;;;;29.65;35.03;100117.19;5064130;28;20036;-71
2021/05/24 15:55:20;;;;;;;10.82;2.35;;;;;;;29.57;35.23;100125.13;5064097;28;20255;-71
2021/05/24 15:57:46;;;;;;;7.22;2.45;;;;;;;29.51;35.65;100127.88;5063786;28;20052;-71
2021/05/24 16:00:12;;;;;;;7.28;2.30;;;;;;;29.35;36.42;100123.53;5063721;28;20043;-71
2021/05/24 16:02:39;;;;;;;8.25;2.20;;;;;;;29.26;36.50;100130.63;5063516;28;20036;-71
2021/05/24 16:05:06;;;;;;;10.70;2.65;;;;;;;29.41;37.95;100129.78;5066455;28;20040;-72
2021/05/24 16:07:31;;;;;;;6.50;2.47;;;;;;;29.27;39.71;100131.44;5063988;28;20036;-71
2021/05/24 16:09:57;;;;;;;8.02;3.13;;;;;;;29.19;39.48;100132.84;5065792;28;20037;-71
2021/05/24 16:12:22;;;;;;;14.32;2.70;;;;;;;29.01;40.40;100138.81;5075028;28;20075;-71
2021/05/24 16:14:48;;;;;;;13.30;2.75;;;;;;;28.91;40.89;100143.19;5066701;28;20028;-70
2021/05/24 16:17:14;;;;;;;8.30;2.60;;;;;;;28.76;40.51;100145.06;5081651;28;20333;-71
2021/05/24 16:19:40;;;;;;;6.97;2.75;;;;;;;28.78;41.01;100148.34;5079862;28;20092;-71
2021/05/24 16:22:05;;;;;;;7.65;2.88;;;;;;;28.92;39.87;100139.38;5082280;28;20025;-71
2021/05/24 16:26:58;;;;;;;10.77;3.05;;;;;;;28.65;40.41;100155.16;5082515;28;20032;-71
2021/05/24 16:29:24;;;;;;;6.47;2.60;;;;;;;28.62;39.40;100161.13;5082859;28;20028;-71
2021/05/24 16:31:53;;;;;;;6.20;2.25;;;;;;;28.61;40.15;100148.59;5081433;28;20040;-70
2021/05/24 16:34:19;;;;;;;13.25;2.88;;;;;;;28.66;39.39;100156.78;5080728;28;20419;-71
2021/05/24 16:36:45;;;;;;;8.50;2.78;;;;;;;28.68;38.42;100159.22;5080847;28;20068;-71
2021/05/24 16:39:11;;;;;;;10.63;2.45;;;;;;;28.54;39.44;100162.50;5081910;28;20032;-71
2021/05/24 16:41:38;;;;;;;4.35;2.20;;;;;;;28.46;39.30;100154.84;5080846;28;20049;-71
2021/05/24 16:44:04;;;;;;;8.13;2.42;;;;;;;28.59;39.24;100164.41;5067718;28;20077;-71
2021/05/24 16:46:31;;;;;;;12.07;2.70;;;;;;;28.29;39.56;100165.16;5081603;28;20059;-71
2021/05/24 16:48:56;;;;;;;11.77;2.40;;;;;;;28.21;39.83;100171.09;5080591;28;20040;-71
2021/05/24 16:51:22;;;;;;;6.05;2.13;;;;;;;28.20;39.57;100161.28;5081212;28;20032;-71
2021/05/24 16:53:48;;;;;;;12.90;2.90;;;;;;;28.32;40.02;100170.06;5076675;28;20259;-71
2021/05/24 16:56:13;;;;;;;7.97;2.33;;;;;;;28.22;40.36;100159.94;5071512;28;20034;-71
2021/05/24 16:58:39;;;;;;;7.22;2.35;;;;;;;28.11;40.18;100168.34;5072758;28;20044;-70
2021/05/24 17:01:04;;;;;;;13.10;2.50;;;;;;;28.03;40.40;100171.56;5073744;28;20075;-70
2021/05/24 17:03:30;;;;;;;11.10;2.88;;;;;;;27.98;40.54;100167.72;5061988;28;20255;-71
2021/05/24 17:05:55;;;;;;;10.15;2.78;;;;;;;27.97;41.25;100171.53;5063331;28;20047;-71
2021/05/24 17:08:21;;;;;;;15.45;3.10;;;;;;;27.96;41.34;100175.34;5072177;28;20021;-71
2021/05/24 17:10:51;;;;;;;10.82;2.75;;;;;;;27.78;41.18;100174.97;5071626;28;20043;-71
2021/05/24 17:13:21;;;;;;;8.90;2.45;;;;;;;27.80;41.28;100170.09;5076670;28;20267;-70
2021/05/24 17:15:49;;;;;;;8.65;2.78;;;;;;;27.72;41.50;100173.31;5075275;28;20095;-71
2021/05/24 17:18:15;;;;;;;5.47;2.45;;;;;;;27.62;41.72;100185.78;5072481;28;20086;-71
2021/05/24 17:20:42;;;;;;;7.22;2.25;;;;;;;27.58;41.37;100175.66;5074174;28;20383;-71
2021/05/24 17:23:07;;;;;;;7.20;2.70;;;;;;;27.49;42.16;100161.75;5071787;28;20102;-70
2021/05/24 17:25:34;;;;;;;8.35;2.90;;;;;;;27.52;42.10;100168.56;5074070;28;20032;-71
2021/05/24 17:28:00;;;;;;;8.05;3.00;;;;;;;27.49;42.38;100180.78;5071755;28;20033;-71
2021/05/24 17:30:30;;;;;;;12.35;2.97;;;;;;;27.27;42.57;100177.38;5071845;28;20111;-70
2021/05/24 17:32:56;;;;;;;12.05;2.47;;;;;;;27.22;42.72;100175.44;5074178;28;20242;-71
2021/05/24 17:35:23;;;;;;;7.72;2.88;;;;;;;27.29;42.66;100177.94;5074836;28;20553;-70
2021/05/24 17:37:49;;;;;;;11.27;2.85;;;;;;;27.10;43.26;100165.84;5073010;28;20025;-71
2021/05/24 17:40:17;;;;;;;10.15;2.58;;;;;;;27.04;43.65;100186.69;5070456;28;20084;-70
2021/05/24 17:42:43;;;;;;;7.68;2.75;;;;;;;27.01;43.06;100187.22;5074756;28;20032;-70
2021/05/24 17:45:13;;;;;;;8.73;2.75;;;;;;;26.85;43.66;100182.69;5064705;28;20043;-70
2021/05/24 17:47:39;;;;;;;7.97;2.90;;;;;;;26.99;43.78;100184.75;5060643;28;20084;-70
2021/05/24 17:50:10;;;;;;;5.93;2.85;;;;;;;26.78;44.59;100184.81;5075531;28;20027;-70
2021/05/24 17:52:37;;;;;;;13.07;2.70;;;;;;;26.83;44.32;100198.44;5084334;28;20028;-70
2021/05/24 17:55:07;;;;;;;7.93;2.28;;;;;;;26.76;44.83;100195.94;5080003;28;20098;-71
2021/05/24 17:57:33;;;;;;;9.40;2.25;;;;;;;26.65;44.78;100205.88;5083559;28;20024;-71
2021/05/24 17:59:59;;;;;;;7.32;2.33;;;;;;;26.73;44.58;100210.84;5084333;28;20024;-71
2021/05/24 18:02:24;;;;;;;5.75;2.70;;;;;;;26.68;44.98;100209.97;5080869;28;20191;-71
2021/05/24 18:04:50;;;;;;;8.88;2.60;;;;;;;26.59;45.09;100211.50;5080041;28;20040;-70
2021/05/24 18:07:15;;;;;;;9.32;2.75;;;;;;;26.45;44.75;100216.53;5081243;28;20030;-70
2021/05/24 18:09:41;;;;;;;11.70;2.83;;;;;;;26.32;45.45;100223.16;5080817;28;20267;-70
2021/05/24 18:12:07;;;;;;;10.18;2.58;;;;;;;26.18;45.62;100230.03;5080079;28;20028;-70
2021/05/24 18:14:32;;;;;;;7.43;2.53;;;;;;;25.96;46.12;100229.16;5079286;28;20210;-71
2021/05/24 18:16:58;;;;;;;10.02;3.10;;;;;;;25.75;47.34;100231.59;5080164;28;20032;-71
2021/05/24 18:19:23;;;;;;;11.40;3.78;;;;;;;25.62;48.73;100241.94;5082471;28;20303;-70
2021/05/24 18:21:48;;;;;;;9.50;3.58;;;;;;;25.48;49.32;100238.75;5080825;28;20241;-71
2021/05/24 18:24:14;;;;;;;13.00;4.30;;;;;;;25.41;49.40;100244.34;5081874;28;20041;-71
2021/05/24 18:26:39;;;;;;;9.80;4.28;;;;;;;25.21;49.69;100246.75;5082083;28;20337;-70
2021/05/24 18:29:05;;;;;;;13.00;3.75;;;;;;;25.07;50.77;100261.69;5080014;28;20103;-70
2021/05/24 18:31:32;;;;;;;10.88;3.30;;;;;;;24.91;51.71;100265.13;5100943;28;20059;-71
2021/05/24 18:33:58;;;;;;;6.30;3.00;;;;;;;24.75;52.47;100272.97;5088315;28;20046;-71
2021/05/24 18:36:23;;;;;;;6.65;2.80;;;;;;;24.61;52.64;100279.72;5079700;28;20272;-71
2021/05/24 18:38:50;;;;;;;10.95;3.80;;;;;;;24.52;53.02;100290.13;5076903;28;20214;-71
2021/05/24 18:41:16;;;;;;;9.93;3.88;;;;;;;24.43;53.18;100282.63;5081967;28;20126;-70
2021/05/24 18:43:42;;;;;;;8.40;2.92;;;;;;;24.46;53.30;100298.38;5081478;28;20074;-70
2021/05/24 18:46:08;;;;;;;8.30;2.90;;;;;;;24.20;54.16;100295.09;5081764;28;20024;-70
2021/05/24 18:48:34;;;;;;;12.70;3.00;;;;;;;24.19;55.02;100315.09;5082052;28;20033;-70
2021/05/24 18:51:01;;;;;;;6.70;2.95;;;;;;;24.15;55.32;100308.53;5081630;28;20036;-71
2021/05/24 18:53:28;;;;;;;7.05;2.75;;;;;;;24.17;55.67;100321.81;5081676;28;20043;-71
2021/05/24 18:55:55;;;;;;;11.52;2.60;;;;;;;24.16;55.80;100318.28;5081664;28;20078;-70
2021/05/24 18:58:22;;;;;;;8.23;3.13;;;;;;;24.14;55.99;100335.81;5082016;28;20036;-71
2021/05/24 19:00:49;;;;;;;5.57;2.83;;;;;;;24.06;56.47;100325.34;5081354;28;20342;-72
2021/05/24 19:08:39;;;;;;;7.55;3.25;;;;;;;23.89;57.47;100328.75;5068674;28;20269;-72
2021/05/24 19:11:06;;;;;;;7.57;3.20;;;;;;;23.96;57.40;100344.88;5080579;28;20029;-72
2021/05/24 19:13:33;;;;;;;6.65;3.30;;;;;;;23.97;57.34;100345.69;5081729;28;20029;-72
2021/05/24 19:15:59;;;;;;;7.68;3.35;;;;;;;23.99;57.38;100344.41;5080145;28;20336;-71
2021/05/24 19:18:25;;;;;;;6.93;3.03;;;;;;;23.97;57.26;100351.13;5080223;28;20036;-70
2021/05/24 19:20:51;;;;;;;6.95;3.40;;;;;;;23.91;57.17;100347.44;5082520;28;20214;-70
2021/05/24 19:23:18;;;;;;;8.73;3.65;;;;;;;23.98;57.26;100367.09;5085148;28;20032;-71
2021/05/24 19:25:45;;;;;;;4.95;2.95;;;;;;;23.94;57.47;100362.41;5085071;28;20033;-70
2021/05/24 19:28:15;;;;;;;9.82;3.40;;;;;;;23.94;57.40;100363.22;5085356;28;20328;-71
2021/05/24 19:30:41;;;;;;;9.50;3.00;;;;;;;23.88;57.52;100362.25;5082922;28;20344;-72
2021/05/24 19:33:08;;;;;;;6.57;2.92;;;;;;;23.76;57.83;100352.47;5085109;28;20036;-72
2021/05/24 19:35:34;;;;;;;3.92;3.40;;;;;;;23.76;58.10;100366.00;5085007;28;20095;-72
2021/05/24 19:38:00;;;;;;;11.32;3.00;;;;;;;23.60;58.31;100367.50;5083611;28;20047;-71
2021/05/24 19:40:26;;;;;;;6.70;2.90;;;;;;;23.53;58.20;100377.56;5084405;28;20321;-72
2021/05/24 19:42:51;;;;;;;6.88;2.45;;;;;;;23.52;58.42;100375.91;5085015;28;20107;-70
2021/05/24 19:45:18;;;;;;;8.40;2.65;;;;;;;23.55;58.32;100368.19;5083501;28;20025;-70
2021/05/24 20:25:38;;;;;;;4.82;1.90;;;;;;;21.66;58.84;100400.53;5082346;28;19928;-72
2021/05/24 20:28:04;;;;;;;3.25;2.08;;;;;;;21.82;58.41;100399.16;5081737;28;20036;-72
2021/05/24 20:30:29;;;;;;;8.48;2.22;;;;;;;21.73;58.35;100400.47;5081948;28;20055;-72
2021/05/24 20:32:55;;;;;;;7.78;2.20;;;;;;;21.61;58.80;100398.50;5082075;28;20258;-72
2021/05/24 20:35:21;;;;;;;8.85;2.17;;;;;;;21.56;58.88;100417.19;5084804;28;20040;-71
2021/05/24 20:37:46;;;;;;;5.97;2.17;;;;;;;21.56;59.28;100422.56;5081205;28;20044;-71
2021/05/24 20:40:13;;;;;;;6.85;2.10;;;;;;;21.52;59.40;100412.44;5081369;28;20082;-71
2021/05/24 20:42:38;;;;;;;5.78;2.20;;;;;;;21.33;59.23;100382.72;5081299;28;20028;-71
2021/05/24 20:45:05;;;;;;;7.47;2.40;;;;;;;21.47;59.40;100410.41;5081238;28;20039;-71
2021/05/24 20:47:31;;;;;;;9.07;2.50;;;;;;;21.37;59.90;100409.22;5062536;28;20106;-71
2021/05/24 20:50:00;;;;;;;5.30;2.30;;;;;;;21.39;59.21;100417.91;5062212;28;20037;-71
2021/05/24 20:52:27;;;;;;;4.22;2.33;;;;;;;21.32;59.30;100424.16;5081956;28;20070;-72
2021/05/24 20:54:53;;;;;;;8.68;2.50;;;;;;;21.28;59.62;100414.03;5083918;28;20036;-71
2021/05/24 20:57:19;;;;;;;4.72;2.17;;;;;;;21.30;59.45;100415.47;5079983;28;20020;-73
2021/05/24 20:59:47;;;;;;;7.90;2.38;;;;;;;21.28;59.64;100422.13;5082686;28;20210;-73
2021/05/24 21:02:15;;;;;;;7.47;2.67;;;;;;;21.28;59.68;100428.34;5082789;28;20040;-73
2021/05/24 21:04:40;;;;;;;3.30;1.80;;;;;;;21.21;59.38;100432.91;5082154;28;20307;-72
2021/05/24 21:07:09;;;;;;;5.20;2.00;;;;;;;21.19;59.41;100432.28;5084678;28;20043;-73
2021/05/24 21:09:34;;;;;;;7.10;2.50;;;;;;;21.21;58.91;100435.59;5085655;28;20024;-72
2021/05/24 21:12:00;;;;;;;8.10;2.17;;;;;;;21.22;58.65;100441.81;5081558;28;20047;-73
2021/05/24 21:14:26;;;;;;;6.80;1.92;;;;;;;21.08;59.10;100446.44;5083727;28;20028;-72
2021/05/24 21:16:52;;;;;;;3.97;2.00;;;;;;;21.25;58.31;100449.50;5083711;28;20364;-73
2021/05/24 21:19:18;;;;;;;3.97;1.80;;;;;;;21.27;57.31;100445.53;5081285;28;20040;-72
2021/05/24 21:21:44;;;;;;;5.45;1.77;;;;;;;20.98;57.81;100440.66;5083954;28;20071;-73
2021/05/24 21:24:09;;;;;;;2.35;1.80;;;;;;;20.99;57.75;100453.91;5083535;28;20044;-73
2021/05/24 21:26:35;;;;;;;3.80;1.80;;;;;;;20.86;57.32;100455.81;5090987;28;20020;-73
2021/05/24 21:29:00;;;;;;;10.80;2.20;;;;;;;20.81;57.67;100440.31;5083129;28;20036;-72
2021/05/24 21:31:27;;;;;;;10.48;2.00;;;;;;;20.90;57.99;100457.06;5083011;28;20218;-72
2021/05/24 21:36:29;;;;;;;4.60;1.90;;;;;;;20.64;58.66;100455.22;5069228;28;20087;-72
2021/05/24 21:38:55;;;;;;;4.50;2.10;;;;;;;20.51;58.80;100429.19;5082721;28;20099;-72
2021/05/24 21:41:20;;;;;;;3.92;1.92;;;;;;;20.65;58.20;100463.09;5082397;28;20025;-72
2021/05/24 21:43:46;;;;;;;2.25;1.60;;;;;;;20.66;58.34;100462.06;5082394;28;20040;-73
2021/05/24 21:46:11;;;;;;;2.95;1.70;;;;;;;20.61;57.58;100466.41;5082538;28;20039;-73
2021/05/24 21:48:37;;;;;;;2.85;1.67;;;;;;;20.40;58.54;100462.09;5082704;28;20062;-72
2021/05/24 21:51:02;;;;;;;4.43;2.22;;;;;;;20.54;57.82;100462.91;5082272;28;20318;-72
2021/05/24 21:53:28;;;;;;;8.20;1.92;;;;;;;20.80;57.64;100459.31;5082693;28;20036;-72
2021/05/24 21:55:53;;;;;;;8.85;1.88;;;;;;;20.98;56.51;100462.19;5082418;28;20226;-72
2021/05/24 21:58:22;;;;;;;4.45;1.60;;;;;;;21.18;56.11;100464.81;5082559;28;20036;-71
2021/05/24 22:00:49;;;;;;;6.18;1.60;;;;;;;21.21;55.67;100470.59;5082721;28;20222;-72
2021/05/24 22:03:14;;;;;;;5.05;1.55;;;;;;;21.20;55.70;100470.81;5082332;28;20298;-72
2021/05/24 22:05:40;;;;;;;4.05;1.60;;;;;;;21.15;55.54;100468.75;5082197;28;20019;-73
2021/05/24 22:08:07;;;;;;;7.75;1.80;;;;;;;21.16;55.32;100467.72;5082577;28;20071;-72
2021/05/24 22:10:33;;;;;;;2.42;1.67;;;;;;;21.23;55.04;100476.63;5081629;28;20039;-72
2021/05/24 22:13:00;;;;;;;3.38;1.60;;;;;;;21.33;54.79;100484.25;5080454;28;20032;-69
2021/05/24 22:15:28;;;;;;;5.50;1.70;;;;;;;21.30;54.96;100482.00;5099335;28;20039;-72
2021/05/24 22:17:55;;;;;;;4.18;1.50;;;;;;;21.56;53.65;100484.56;5084118;28;20362;-73
2021/05/24 22:20:21;;;;;;;6.72;1.30;;;;;;;21.54;53.94;100475.84;5080728;28;20044;-72
2021/05/24 22:22:51;;;;;;;3.95;1.50;;;;;;;21.68;53.46;100474.75;5080436;28;20036;-73
2021/05/24 22:25:18;;;;;;;5.78;1.65;;;;;;;21.75;53.18;100479.25;5079736;28;20032;-72
2021/05/24 22:27:45;;;;;;;3.25;1.60;;;;;;;21.82;53.08;100480.03;5083039;28;20086;-73
2021/05/24 22:30:14;;;;;;;5.90;1.63;;;;;;;21.83;52.80;100485.22;5085099;28;20110;-70
2021/05/24 22:32:40;;;;;;;4.07;1.30;;;;;;;21.85;53.02;100487.72;5080868;28;20066;-70
2021/05/24 22:35:07;;;;;;;5.32;1.20;;;;;;;21.89;52.68;100488.94;5079435;28;20089;-70
2021/05/24 22:37:33;;;;;;;3.20;1.23;;;;;;;21.92;52.66;100485.81;5084033;28;20044;-70
2021/05/24 22:39:59;;;;;;;2.30;1.33;;;;;;;21.86;52.66;100484.00;5080949;28;20070;-70
2021/05/24 22:42:24;;;;;;;2.88;1.52;;;;;;;21.90;52.72;100482.50;5080869;28;20091;-70
2021/05/24 22:44:50;;;;;;;3.53;1.30;;;;;;;21.88;52.42;100485.41;5079577;28;20043;-72
2021/05/24 22:47:16;;;;;;;2.47;1.52;;;;;;;21.85;52.94;100491.25;5083622;28;20033;-70
2021/05/24 22:49:42;;;;;;;2.60;1.35;;;;;;;21.80;52.85;100488.34;5079783;28;20428;-73
2021/05/24 22:52:08;;;;;;;3.65;1.75;;;;;;;21.88;52.85;100493.50;5080232;28;20033;-73
2021/05/24 22:54:34;;;;;;;2.53;1.50;;;;;;;21.77;52.99;100488.78;5082214;28;20043;-70
2021/05/24 22:57:00;;;;;;;3.97;1.50;;;;;;;21.79;53.09;100493.97;5085249;28;20036;-70
2021/05/24 22:59:25;;;;;;;4.47;1.85;;;;;;;21.80;52.88;100495.59;5085169;28;20051;-70
2021/05/24 23:01:51;;;;;;;4.03;1.65;;;;;;;21.86;52.85;100500.16;5084315;28;20021;-72
2021/05/24 23:04:17;;;;;;;6.38;1.60;;;;;;;21.81;52.77;100490.00;5088019;28;20040;-70
2021/05/24 23:06:42;;;;;;;3.78;1.63;;;;;;;21.82;53.09;100491.66;5083611;28;20037;-70
2021/05/24 23:09:08;;;;;;;3.60;1.63;;;;;;;21.56;53.59;100483.72;5083370;28;20036;-70
2021/05/24 23:11:33;;;;;;;4.03;1.60;;;;;;;21.46;54.03;100488.75;5084375;28;20029;-72
2021/05/24 23:13:59;;;;;;;5.78;1.70;;;;;;;21.37;54.33;100488.19;5083988;28;20028;-73
2021/05/24 23:16:24;;;;;;;3.25;1.60;;;;;;;21.31;54.75;100491.72;5084010;28;20027;-72
2021/05/24 23:18:52;;;;;;;5.53;1.45;;;;;;;21.40;54.58;100493.13;5083896;28;20071;-73
2021/05/24 23:21:18;;;;;;;6.97;1.73;;;;;;;21.36;54.47;100489.22;5081858;28;20047;-72
2021/05/24 23:23:44;;;;;;;7.63;1.83;;;;;;;21.40;54.70;100481.53;5087407;28;20085;-73
2021/05/24 23:26:09;;;;;;;3.20;1.63;;;;;;;21.47;54.38;100488.53;5083641;28;20345;-73
2021/05/24 23:28:35;;;;;;;5.95;2.08;;;;;;;21.40;54.60;100487.75;5084224;28;20112;-73
2021/05/24 23:31:00;;;;;;;7.32;1.92;;;;;;;21.38;54.75;100481.75;5083524;28;20341;-72
2021/05/24 23:33:26;;;;;;;6.07;1.85;;;;;;;21.37;54.86;100479.28;5082984;28;20325;-72
2021/05/24 23:35:51;;;;;;;6.25;2.03;;;;;;;21.34;55.03;100475.13;5083744;28;20032;-72
2021/05/24 23:38:17;;;;;;;2.50;1.45;;;;;;;21.28;55.07;100463.34;5084129;28;20040;-72
2021/05/24 23:40:43;;;;;;;4.47;1.67;;;;;;;21.33;54.95;100476.19;5083171;28;20087;-70
2021/05/24 23:43:09;;;;;;;4.25;1.88;;;;;;;21.36;55.02;100475.75;5085068;28;20115;-73
2021/05/24 23:45:35;;;;;;;4.82;1.70;;;;;;;21.27;55.25;100464.41;5083341;28;20020;-73
2021/05/24 23:48:00;;;;;;;5.60;1.92;;;;;;;21.12;55.89;100469.19;5082385;28;20334;-73
2021/05/24 23:50:26;;;;;;;4.13;2.05;;;;;;;21.14;56.08;100474.38;5083491;28;20032;-72
2021/05/24 23:52:51;;;;;;;4.10;1.63;;;;;;;21.14;55.68;100472.50;5083019;28;20038;-72
2021/05/24 23:55:18;;;;;;;3.17;1.88;;;;;;;21.11;55.98;100477.47;5083282;28;20048;-73
2021/05/24 23:57:45;;;;;;;4.50;2.22;;;;;;;21.01;56.25;100478.75;5081697;28;20112;-72
